createdAt,value
2022-08-12T00:00:17.577Z,101822.03
2022-08-12T00:03:21.963Z,101831.53
2022-08-12T00:06:26.607Z,101824.03
2022-08-12T00:09:31.478Z,101826.41
2022-08-12T00:12:37.433Z,101819.31
2022-08-12T00:15:41.870Z,101815.66
2022-08-12T00:18:46.353Z,101829.72
2022-08-12T00:21:51.017Z,101830.47
2022-08-12T00:24:54.981Z,101840.81
2022-08-12T00:27:59.159Z,101815.09
2022-08-12T00:31:03.628Z,101842.94
2022-08-12T00:34:07.719Z,101836.13
2022-08-12T00:37:14.252Z,101838.66
2022-08-12T00:40:18.693Z,101836.06
2022-08-12T00:43:06.913Z,101836.38
2022-08-12T00:46:11.530Z,101839.41
2022-08-12T00:48:58.244Z,101841.75
2022-08-12T00:52:04.458Z,101847.19
2022-08-12T00:54:57.290Z,101845.56
2022-08-12T00:57:49.237Z,101833.63
2022-08-12T01:00:35.479Z,101838.00
2022-08-12T01:03:21.879Z,101832.97
2022-08-12T01:06:27.010Z,101838.56
2022-08-12T01:09:33.318Z,101840.44
2022-08-12T01:12:19.834Z,101821.53
2022-08-12T01:15:06.230Z,101846.75
2022-08-12T01:17:51.446Z,101834.78
2022-08-12T01:20:49.932Z,101832.75
2022-08-12T01:23:46.961Z,101835.06
2022-08-12T01:26:32.811Z,101840.00
2022-08-12T01:29:26.127Z,101831.38
2022-08-12T01:32:14.985Z,101820.00
2022-08-12T01:35:03.338Z,101840.63
2022-08-12T01:38:01.712Z,101842.66
2022-08-12T01:40:48.616Z,101837.97
2022-08-12T01:43:34.933Z,101834.13
2022-08-12T01:46:38.878Z,101830.50
2022-08-12T01:49:33.657Z,101830.38
2022-08-12T01:52:37.055Z,101836.34
2022-08-12T01:55:26.745Z,101833.59
2022-08-12T01:58:53.219Z,101815.09
2022-08-12T02:01:40.021Z,101825.97
2022-08-12T02:05:18.223Z,101829.25
2022-08-12T02:09:05.229Z,101825.69
2022-08-12T02:12:27.730Z,101818.63
2022-08-12T02:15:24.914Z,101824.59
2022-08-12T02:18:24.794Z,101819.03
2022-08-12T02:21:26.641Z,101820.13
2022-08-12T02:24:20.232Z,101820.91
2022-08-12T02:27:08.801Z,101819.41
2022-08-12T02:29:54.459Z,101814.13
2022-08-12T02:32:44.052Z,101820.19
2022-08-12T02:35:33.799Z,101826.81
2022-08-12T02:38:21.618Z,101827.91
2022-08-12T02:41:11.393Z,101800.94
2022-08-12T02:44:04.097Z,101809.81
2022-08-12T02:46:53.950Z,101823.19
2022-08-12T02:49:46.474Z,101814.03
2022-08-12T02:52:33.898Z,101818.38
2022-08-12T02:55:28.613Z,101811.16
2022-08-12T02:58:20.530Z,101806.19
2022-08-12T03:01:24.387Z,101810.19
2022-08-12T03:04:15.396Z,101822.59
2022-08-12T03:07:32.661Z,101814.25
2022-08-12T03:10:40.064Z,101811.09
2022-08-12T03:13:33.682Z,101818.38
2022-08-12T03:16:20.950Z,101815.13
2022-08-12T03:19:07.605Z,101818.69
2022-08-12T03:22:09.420Z,101813.00
2022-08-12T03:24:58.299Z,101815.56
2022-08-12T03:27:49.845Z,101815.03
2022-08-12T03:30:37.357Z,101794.94
2022-08-12T03:33:23.997Z,101810.22
2022-08-12T03:36:09.939Z,101814.19
2022-08-12T03:39:15.603Z,101804.97
2022-08-12T03:42:26.432Z,101802.31
2022-08-12T03:45:52.213Z,101787.31
2022-08-12T03:48:59.227Z,101804.25
2022-08-12T03:52:05.238Z,101816.56
2022-08-12T03:55:09.956Z,101807.91
2022-08-12T03:58:14.431Z,101816.00
2022-08-12T04:01:00.107Z,101800.75
2022-08-12T04:03:52.273Z,101802.41
2022-08-12T04:06:46.284Z,101809.88
2022-08-12T04:09:32.541Z,101797.19
2022-08-12T04:12:36.431Z,101817.56
2022-08-12T04:15:25.780Z,101815.38
2022-08-12T04:18:15.915Z,101807.31
2022-08-12T04:21:02.830Z,101804.19
2022-08-12T04:23:49.373Z,101815.53
2022-08-12T04:26:39.415Z,101811.81
2022-08-12T04:30:30.426Z,101806.69
2022-08-12T04:32:32.046Z,101815.91
2022-08-12T04:35:18.657Z,101813.25
2022-08-12T04:38:05.231Z,101822.56
2022-08-12T04:40:51.728Z,101813.78
2022-08-12T04:43:53.892Z,101826.16
2022-08-12T04:46:44.203Z,101824.84
2022-08-12T04:49:32.049Z,101813.16
2022-08-12T04:52:18.253Z,101830.31
2022-08-12T04:55:04.190Z,101811.97
2022-08-12T04:57:49.843Z,101830.78
2022-08-12T05:00:38.032Z,101823.22
2022-08-12T05:03:26.409Z,101822.50
2022-08-12T05:06:11.953Z,101831.09
2022-08-12T05:09:13.643Z,101825.13
2022-08-12T05:11:59.279Z,101810.81
2022-08-12T05:14:45.244Z,101821.22
2022-08-12T05:17:30.948Z,101826.94
2022-08-12T05:20:19.757Z,101822.56
2022-08-12T05:23:12.635Z,101824.97
2022-08-12T05:26:00.890Z,101824.28
2022-08-12T05:28:46.497Z,101822.78
2022-08-12T05:31:42.623Z,101814.59
2022-08-12T05:34:34.434Z,101840.22
2022-08-12T05:37:23.181Z,101831.25
2022-08-12T05:40:11.437Z,101824.69
2022-08-12T05:42:57.402Z,101823.44
2022-08-12T05:45:44.955Z,101819.38
2022-08-12T05:48:32.990Z,101828.97
2022-08-12T05:51:18.770Z,101826.94
2022-08-12T05:54:04.942Z,101824.53
2022-08-12T05:56:51.613Z,101827.94
2022-08-12T05:59:38.651Z,101836.59
2022-08-12T06:02:24.046Z,101828.50
2022-08-12T06:05:10.458Z,101823.94
2022-08-12T06:08:02.056Z,101840.84
2022-08-12T06:10:49.951Z,101839.53
2022-08-12T06:13:54.137Z,101830.38
2022-08-12T06:16:40.220Z,101834.97
2022-08-12T06:19:25.937Z,101841.25
2022-08-12T06:22:31.497Z,101848.81
2022-08-12T06:25:21.654Z,101839.44
2022-08-12T06:28:19.442Z,101845.31
2022-08-12T06:35:25.025Z,101841.44
2022-08-12T06:37:20.106Z,101850.94
2022-08-12T06:40:08.041Z,101844.84
2022-08-12T06:42:53.692Z,101849.78
2022-08-12T06:45:45.124Z,101842.31
2022-08-12T06:48:32.559Z,101848.84
2022-08-12T06:51:20.571Z,101846.38
2022-08-12T06:54:07.196Z,101847.97
2022-08-12T06:58:05.549Z,101848.97
2022-08-12T06:59:58.675Z,101827.38
2022-08-12T07:02:44.554Z,101840.03
2022-08-12T07:05:30.853Z,101837.19
2022-08-12T07:08:16.893Z,101829.91
2022-08-12T07:11:05.911Z,101848.41
2022-08-12T07:14:11.534Z,101840.25
2022-08-12T07:17:02.083Z,101855.22
2022-08-12T07:19:48.718Z,101848.09
2022-08-12T07:22:34.980Z,101838.97
2022-08-12T07:25:37.864Z,101842.00
2022-08-12T07:28:29.325Z,101845.75
2022-08-12T07:31:17.453Z,101831.88
2022-08-12T07:34:04.354Z,101835.22
2022-08-12T07:36:49.800Z,101842.06
2022-08-12T07:39:35.607Z,101838.53
2022-08-12T07:42:21.166Z,101847.63
2022-08-12T07:45:09.354Z,101846.22
2022-08-12T07:47:55.221Z,101834.41
2022-08-12T07:50:40.598Z,101834.41
2022-08-12T07:53:25.882Z,101850.00
2022-08-12T07:56:12.019Z,101833.16
2022-08-12T07:59:01.043Z,101835.38
2022-08-12T08:01:46.701Z,101850.69
2022-08-12T08:04:50.505Z,101845.97
2022-08-12T08:07:36.306Z,101845.28
2022-08-12T08:10:21.705Z,101836.84
2022-08-12T08:13:08.724Z,101839.03
2022-08-12T08:16:04.071Z,101836.81
2022-08-12T08:18:49.720Z,101825.38
2022-08-12T08:21:35.422Z,101843.69
2022-08-12T08:24:25.800Z,101836.53
2022-08-12T08:27:12.255Z,101833.25
2022-08-12T08:29:58.465Z,101832.69
2022-08-12T08:32:43.861Z,101839.63
2022-08-12T08:35:43.157Z,101836.00
2022-08-12T08:38:35.416Z,101837.34
2022-08-12T08:42:17.368Z,101831.31
2022-08-12T08:44:57.926Z,101827.97
2022-08-12T08:47:46.250Z,101824.28
2022-08-12T08:50:32.174Z,101840.91
2022-08-12T08:53:17.949Z,101839.72
2022-08-12T08:56:05.407Z,101824.16
2022-08-12T08:58:51.386Z,101830.91
2022-08-12T09:01:38.651Z,101830.47
2022-08-12T09:07:51.708Z,101828.63
2022-08-12T09:10:35.616Z,101822.63
2022-08-12T09:14:11.253Z,101832.19
2022-08-12T09:16:41.570Z,101820.19
2022-08-12T09:19:29.308Z,101828.09
2022-08-12T09:22:18.547Z,101825.78
2022-08-12T09:25:07.232Z,101810.72
2022-08-12T09:28:03.384Z,101805.50
2022-08-12T09:30:51.292Z,101822.56
2022-08-12T09:34:27.493Z,101804.13
2022-08-12T09:36:58.184Z,101808.22
2022-08-12T09:40:02.431Z,101798.22
2022-08-12T09:43:21.885Z,101799.66
2022-08-12T09:46:22.131Z,101794.47
2022-08-12T09:49:13.600Z,101792.91
2022-08-12T09:52:02.305Z,101794.19
2022-08-12T09:54:48.471Z,101797.31
2022-08-12T09:58:46.932Z,101769.34
2022-08-12T10:00:52.258Z,101769.44
2022-08-12T10:03:55.476Z,101777.06
2022-08-12T10:06:54.857Z,101775.16
2022-08-12T10:09:58.542Z,101766.72
2022-08-12T10:13:07.122Z,101769.66
2022-08-12T10:16:02.574Z,101754.00
2022-08-12T10:18:56.990Z,101757.13
2022-08-12T10:21:44.042Z,101751.22
2022-08-12T10:24:29.407Z,101746.44
2022-08-12T10:27:39.495Z,101739.28
2022-08-12T10:30:44.191Z,101723.47
2022-08-12T10:33:54.974Z,101719.34
2022-08-12T10:36:52.012Z,101734.66
2022-08-12T10:40:06.923Z,101742.00
2022-08-12T10:43:03.705Z,101736.66
2022-08-12T10:45:54.103Z,101718.78
2022-08-12T10:49:05.755Z,101723.94
2022-08-12T10:52:33.453Z,101717.19
2022-08-12T10:55:01.942Z,101711.91
2022-08-12T10:58:15.268Z,101711.19
2022-08-12T11:03:02.265Z,101703.78
2022-08-12T11:04:23.265Z,101691.91
2022-08-12T11:08:36.997Z,101700.81
2022-08-12T11:10:16.087Z,101696.78
2022-08-12T11:13:09.345Z,101694.66
2022-08-12T11:16:04.179Z,101680.09
2022-08-12T11:19:02.578Z,101684.06
2022-08-12T11:21:57.989Z,101682.81
2022-08-12T11:24:51.057Z,101680.69
2022-08-12T11:27:39.334Z,101685.56
2022-08-12T11:30:31.462Z,101680.22
2022-08-12T11:33:24.017Z,101680.34
2022-08-12T11:36:16.302Z,101678.13
2022-08-12T11:39:04.377Z,101674.22
2022-08-12T11:41:50.324Z,101675.91
2022-08-12T11:44:42.966Z,101673.22
2022-08-12T11:47:28.944Z,101674.22
2022-08-12T11:50:19.275Z,101665.19
2022-08-12T11:53:05.444Z,101671.25
2022-08-12T11:56:11.271Z,101675.84
2022-08-12T12:02:05.129Z,101655.25
2022-08-12T12:04:52.461Z,101651.28
2022-08-12T12:08:38.572Z,101653.97
2022-08-12T12:10:45.177Z,101647.16
2022-08-12T12:14:08.461Z,101649.50
2022-08-12T12:16:40.065Z,101641.41
2022-08-12T12:19:39.763Z,101643.88
2022-08-12T12:22:31.196Z,101634.88
2022-08-12T12:25:16.773Z,101643.03
2022-08-12T12:28:06.408Z,101644.94
2022-08-12T12:30:54.461Z,101635.25
2022-08-12T12:33:57.349Z,101631.59
2022-08-12T12:36:47.663Z,101621.41
2022-08-12T12:39:55.233Z,101620.31
2022-08-12T12:42:42.642Z,101627.13
2022-08-12T12:45:46.486Z,101611.50
2022-08-12T12:48:32.388Z,101609.16
2022-08-12T12:51:49.208Z,101604.75
2022-08-12T12:54:26.010Z,101611.72
2022-08-12T12:57:14.781Z,101609.34
2022-08-12T13:00:14.929Z,101608.78
2022-08-12T13:03:00.581Z,101600.28
2022-08-12T13:05:53.534Z,101589.00
2022-08-12T13:08:39.693Z,101602.94
2022-08-12T13:11:35.460Z,101601.13
2022-08-12T13:14:29.571Z,101593.81
2022-08-12T13:17:19.894Z,101598.69
2022-08-12T13:20:06.046Z,101595.94
2022-08-12T13:22:53.640Z,101594.28
2022-08-12T13:25:42.795Z,101580.00
2022-08-12T13:28:30.711Z,101593.31
2022-08-12T13:31:16.395Z,101589.25
2022-08-12T13:34:32.214Z,101580.00
2022-08-12T13:37:10.160Z,101597.28
2022-08-12T13:39:55.659Z,101599.13
2022-08-12T13:42:41.274Z,101578.75
2022-08-12T13:45:33.912Z,101596.97
2022-08-12T13:48:19.891Z,101583.16
2022-08-12T13:51:05.438Z,101582.66
2022-08-12T13:53:57.788Z,101563.59
2022-08-12T13:56:50.052Z,101573.34
2022-08-12T13:59:48.727Z,101571.31
2022-08-12T14:02:41.349Z,101557.00
2022-08-12T14:05:38.395Z,101581.56
2022-08-12T14:08:24.760Z,101567.69
2022-08-12T14:11:13.148Z,101565.94
2022-08-12T14:14:03.951Z,101564.41
2022-08-12T14:16:58.239Z,101563.38
2022-08-12T14:20:03.834Z,101563.78
2022-08-12T14:22:49.497Z,101562.09
2022-08-12T14:25:40.689Z,101570.63
2022-08-12T14:28:28.568Z,101571.78
2022-08-12T14:31:18.264Z,101554.25
2022-08-12T14:34:04.966Z,101555.50
2022-08-12T14:36:50.457Z,101553.16
2022-08-12T14:39:35.849Z,101553.22
2022-08-12T14:42:31.615Z,101555.19
2022-08-12T14:45:17.319Z,101569.25
2022-08-12T14:48:08.807Z,101547.72
2022-08-12T14:52:39.703Z,101537.28
2022-08-12T14:56:59.085Z,101543.16
2022-08-12T14:58:00.831Z,101522.34
2022-08-12T15:00:34.197Z,101526.13
2022-08-12T15:03:52.504Z,101530.81
2022-08-12T15:06:44.078Z,101530.88
2022-08-12T15:09:37.764Z,101527.13
2022-08-12T15:12:24.612Z,101529.69
2022-08-12T15:15:11.312Z,101520.69
2022-08-12T15:18:02.025Z,101523.28
2022-08-12T15:20:47.842Z,101514.66
2022-08-12T15:23:55.007Z,101520.50
2022-08-12T15:26:42.362Z,101516.84
2022-08-12T15:29:28.384Z,101516.22
2022-08-12T15:32:16.216Z,101510.31
2022-08-12T15:35:07.838Z,101487.31
2022-08-12T15:38:10.280Z,101498.75
2022-08-12T15:41:00.010Z,101518.38
2022-08-12T15:44:17.026Z,101515.09
2022-08-12T15:46:52.555Z,101511.97
2022-08-12T15:49:54.579Z,101522.38
2022-08-12T15:52:44.484Z,101510.03
2022-08-12T15:55:35.161Z,101518.16
2022-08-12T15:58:20.623Z,101515.59
2022-08-12T16:01:11.678Z,101513.97
2022-08-12T16:04:00.320Z,101520.06
2022-08-12T16:07:06.178Z,101508.22
2022-08-12T16:10:05.015Z,101521.97
2022-08-12T16:12:57.182Z,101513.94
2022-08-12T16:15:51.099Z,101508.94
2022-08-12T16:18:48.844Z,101496.34
2022-08-12T16:21:52.654Z,101503.06
2022-08-12T16:24:44.513Z,101507.66
2022-08-12T16:27:31.518Z,101511.06
2022-08-12T16:30:32.746Z,101509.06
2022-08-12T16:33:19.532Z,101501.91
2022-08-12T16:36:11.429Z,101498.91
2022-08-12T16:38:57.349Z,101497.22
2022-08-12T16:41:43.752Z,101495.91
2022-08-12T16:44:32.688Z,101497.00
2022-08-12T16:47:20.627Z,101494.56
2022-08-12T16:50:07.717Z,101482.84
2022-08-12T16:52:56.250Z,101483.00
2022-08-12T16:55:44.905Z,101482.19
2022-08-12T16:58:36.364Z,101492.84
2022-08-12T17:01:22.239Z,101477.22
2022-08-12T17:04:09.050Z,101490.78
2022-08-12T17:06:54.955Z,101484.22
2022-08-12T17:09:42.260Z,101473.34
2022-08-12T17:12:28.992Z,101489.75
2022-08-12T17:15:21.309Z,101486.94
2022-08-12T17:18:43.541Z,101479.38
2022-08-12T17:21:41.327Z,101483.75
2022-08-12T17:24:35.866Z,101480.69
2022-08-12T17:27:30.919Z,101473.47
2022-08-12T17:30:17.227Z,101438.09
2022-08-12T17:33:07.050Z,101468.59
2022-08-12T17:35:53.275Z,101483.50
2022-08-12T17:38:38.803Z,101481.94
2022-08-12T17:41:57.058Z,101485.34
2022-08-12T17:44:31.383Z,101491.28
2022-08-12T17:47:18.698Z,101479.72
2022-08-12T17:50:17.340Z,101480.03
2022-08-12T17:53:04.528Z,101478.72
2022-08-12T17:55:51.292Z,101480.06
2022-08-12T17:58:42.064Z,101496.19
2022-08-12T18:01:37.189Z,101496.72
2022-08-12T18:04:35.998Z,101495.06
2022-08-12T18:07:23.399Z,101484.75
2022-08-12T18:10:09.838Z,101488.44
2022-08-12T18:12:55.517Z,101494.69
2022-08-12T18:16:06.162Z,101495.22
2022-08-12T18:18:48.984Z,101478.63
2022-08-12T18:22:02.577Z,101494.69
2022-08-12T18:24:40.857Z,101496.00
2022-08-12T18:27:43.507Z,101504.59
2022-08-12T18:30:35.830Z,101510.59
2022-08-12T18:33:25.624Z,101510.38
2022-08-12T18:36:12.963Z,101504.56
2022-08-12T18:38:59.861Z,101500.94
2022-08-12T18:41:47.079Z,101506.94
2022-08-12T18:44:33.437Z,101501.63
2022-08-12T18:47:20.728Z,101516.59
2022-08-12T18:50:06.597Z,101519.44
2022-08-12T18:52:56.915Z,101506.28
2022-08-12T18:55:43.306Z,101527.59
2022-08-12T18:58:59.245Z,101526.41
2022-08-12T19:02:20.745Z,101532.78
2022-08-12T19:05:08.173Z,101518.13
2022-08-12T19:08:01.761Z,101523.31
2022-08-12T19:10:50.438Z,101533.00
2022-08-12T19:13:55.877Z,101534.75
2022-08-12T19:16:43.862Z,101529.13
2022-08-12T19:19:41.696Z,101529.38
2022-08-12T19:22:28.924Z,101540.44
2022-08-12T19:25:23.564Z,101540.03
2022-08-12T19:28:35.532Z,101532.97
2022-08-12T19:31:44.571Z,101532.56
2022-08-12T19:38:04.208Z,101542.66
2022-08-12T19:40:54.885Z,101539.25
2022-08-12T19:44:00.432Z,101525.16
2022-08-12T19:46:53.013Z,101531.84
2022-08-12T19:49:55.159Z,101542.84
2022-08-12T19:52:41.646Z,101545.91
2022-08-12T19:55:28.163Z,101552.56
2022-08-12T19:58:18.139Z,101555.00
2022-08-12T20:01:11.097Z,101547.78
2022-08-12T20:03:59.308Z,101559.69
2022-08-12T20:06:51.525Z,101567.03
2022-08-12T20:09:42.956Z,101561.50
2022-08-12T20:12:53.834Z,101557.66
2022-08-12T20:15:44.807Z,101553.66
2022-08-12T20:18:53.463Z,101570.38
2022-08-12T20:21:40.182Z,101570.28
2022-08-12T20:24:31.518Z,101564.72
2022-08-12T20:27:29.812Z,101568.63
2022-08-12T20:30:37.183Z,101562.34
2022-08-12T20:33:32.667Z,101556.78
2022-08-12T20:36:42.458Z,101555.91
2022-08-12T20:39:52.581Z,101569.88
2022-08-12T20:42:34.583Z,101559.72
2022-08-12T20:45:19.984Z,101567.97
2022-08-12T20:48:10.298Z,101572.00
2022-08-12T20:51:04.541Z,101565.78
2022-08-12T20:53:57.443Z,101573.47
2022-08-12T20:56:45.301Z,101573.78
2022-08-12T20:59:31.896Z,101567.72
2022-08-12T21:02:24.279Z,101565.44
2022-08-12T21:06:13.046Z,101576.72
2022-08-12T21:08:35.003Z,101578.34
2022-08-12T21:11:22.660Z,101574.81
2022-08-12T21:14:10.539Z,101585.50
2022-08-12T21:16:57.002Z,101589.72
2022-08-12T21:19:52.798Z,101588.09
2022-08-12T21:22:40.308Z,101589.03
2022-08-12T21:25:27.047Z,101587.56
2022-08-12T21:28:31.637Z,101591.25
2022-08-12T21:32:47.060Z,101583.59
2022-08-12T21:34:24.288Z,101586.13
2022-08-12T21:37:27.333Z,101587.44
2022-08-12T21:40:14.969Z,101578.41
2022-08-12T21:43:00.650Z,101587.25
2022-08-12T21:46:00.401Z,101573.31
2022-08-12T21:48:48.347Z,101591.28
2022-08-12T21:51:50.003Z,101584.63
2022-08-12T21:54:40.558Z,101595.09
2022-08-12T21:57:26.200Z,101594.91
2022-08-12T22:00:17.405Z,101591.19
2022-08-12T22:03:55.005Z,101586.31
2022-08-12T22:06:42.536Z,101589.59
2022-08-12T22:09:30.315Z,101601.97
2022-08-12T22:12:37.618Z,101601.84
2022-08-12T22:15:23.542Z,101597.03
2022-08-12T22:18:09.520Z,101611.72
2022-08-12T22:20:55.323Z,101604.06
2022-08-12T22:23:52.348Z,101617.06
2022-08-12T22:26:47.855Z,101606.84
2022-08-12T22:29:52.503Z,101600.03
2022-08-12T22:32:50.493Z,101612.13
2022-08-12T22:35:55.783Z,101617.22
2022-08-12T22:38:46.643Z,101613.38
2022-08-12T22:41:56.700Z,101619.78
2022-08-12T22:45:00.798Z,101623.41
2022-08-12T22:47:55.686Z,101608.28
2022-08-12T22:50:41.722Z,101616.06
2022-08-12T22:53:36.309Z,101605.22
2022-08-12T22:56:30.813Z,101610.31
2022-08-12T22:59:17.085Z,101608.34
2022-08-12T23:02:08.260Z,101610.56
2022-08-12T23:04:58.260Z,101605.69
2022-08-12T23:07:58.868Z,101612.97
2022-08-12T23:10:46.361Z,101598.09
2022-08-12T23:13:55.262Z,101609.34
2022-08-12T23:16:42.333Z,101617.47
2022-08-12T23:19:38.324Z,101612.47
2022-08-12T23:22:36.140Z,101613.00
2022-08-12T23:25:22.553Z,101616.94
2022-08-12T23:28:37.158Z,101608.53
2022-08-12T23:31:30.438Z,101618.09
2022-08-12T23:34:35.980Z,101612.22
2022-08-12T23:37:46.762Z,101598.13
2022-08-12T23:40:29.178Z,101614.00
2022-08-12T23:43:17.579Z,101616.78
2022-08-12T23:46:05.948Z,101613.94
2022-08-12T23:48:53.897Z,101619.25
2022-08-12T23:51:39.364Z,101601.59
2022-08-12T23:54:39.176Z,101611.09
2022-08-12T23:58:17.144Z,101609.28
